SBCJ/CKS METAR and TAF weather

Enter ICAO airport designator
Station Type Date Time Source
SBCJ METAR 2023/01/30 10:15 UTC NOAA

SBCJ 301015Z 08004KT 1200 R10/1000 R28/1000 TSRA BR BKN003 FEW027CB OVC080 21/20 Q1016


Station Type Date Time Source
SBCJ Decoded METAR 2023/01/30 10:15 UTC NOAA

Carajas / Maraba, Brazil (SBCJ) 06-07S 050-00W
Jan 30, 2023 - 05:15 AM EST / 2023.01.30 1015 UTC
Wind: from the E (080 degrees) at 5 MPH (4 KT):0
Visibility: less than 1 mile:0
Sky conditions: overcast
Weather: rain with thunder; mist; Cumulonimbus clouds observed
Temperature: 69 F (21 C)
Dew Point: 68 F (20 C)
Relative Humidity: 94%
Pressure (altimeter): 30.00 in. Hg (1016 hPa)
ob: SBCJ 301015Z 08004KT 1200 R10/1000 R28/1000 TSRA BR BKN003 FEW027CB OVC080 21/20 Q1016
cycle: 10

Station Type Date Time Source
SBCJ TAF 2023/01/30 12:12 UTC NOAA

TAF TAF SBCJ 300904Z 3012/3024 05005KT 7000 BKN017 TX28/3017Z TN22/3024Z
TEMPO 3012/3014 3600 BR BKN010
TEMPO 3017/3022 01007KT TS BKN020 FEW030CB
RMK PHC

Example: see airport list